sensor_id;sensor_type;location;lat;lon;timestamp;P1;durP1;ratioP1;P2;durP2;ratioP2
3066;SDS011;1544;48.834;9.194;2023-08-31T00:02:27;2.60;;;1.70;;
3066;SDS011;1544;48.834;9.194;2023-08-31T00:05:03;2.70;;;1.70;;
3066;SDS011;1544;48.834;9.194;2023-08-31T00:07:39;1.90;;;1.80;;
3066;SDS011;1544;48.834;9.194;2023-08-31T00:10:16;3.80;;;2.00;;
3066;SDS011;1544;48.834;9.194;2023-08-31T00:12:52;2.00;;;1.73;;
3066;SDS011;1544;48.834;9.194;2023-08-31T00:15:28;3.00;;;1.80;;
3066;SDS011;1544;48.834;9.194;2023-08-31T00:18:07;2.10;;;1.90;;
3066;SDS011;1544;48.834;9.194;2023-08-31T00:20:45;3.43;;;1.77;;
3066;SDS011;1544;48.834;9.194;2023-08-31T00:23:21;3.23;;;1.80;;
3066;SDS011;1544;48.834;9.194;2023-08-31T00:25:57;1.87;;;1.70;;
3066;SDS011;1544;48.834;9.194;2023-08-31T00:28:33;1.70;;;1.60;;
3066;SDS011;1544;48.834;9.194;2023-08-31T00:31:09;2.40;;;1.50;;
3066;SDS011;1544;48.834;9.194;2023-08-31T00:33:47;1.97;;;1.63;;
3066;SDS011;1544;48.834;9.194;2023-08-31T00:36:26;2.40;;;1.70;;
3066;SDS011;1544;48.834;9.194;2023-08-31T00:39:02;3.13;;;1.70;;
3066;SDS011;1544;48.834;9.194;2023-08-31T00:41:47;1.80;;;1.70;;
3066;SDS011;1544;48.834;9.194;2023-08-31T00:44:23;1.60;;;1.40;;
3066;SDS011;1544;48.834;9.194;2023-08-31T00:47:00;1.50;;;1.40;;
3066;SDS011;1544;48.834;9.194;2023-08-31T00:49:37;2.20;;;2.00;;
3066;SDS011;1544;48.834;9.194;2023-08-31T00:52:14;2.70;;;1.83;;
3066;SDS011;1544;48.834;9.194;2023-08-31T00:54:51;1.90;;;1.80;;
3066;SDS011;1544;48.834;9.194;2023-08-31T00:57:29;3.43;;;2.07;;
3066;SDS011;1544;48.834;9.194;2023-08-31T01:00:05;1.90;;;1.73;;
3066;SDS011;1544;48.834;9.194;2023-08-31T01:08:27;2.27;;;1.80;;
3066;SDS011;1544;48.834;9.194;2023-08-31T01:11:12;2.30;;;2.10;;
3066;SDS011;1544;48.834;9.194;2023-08-31T01:14:09;1.77;;;1.67;;
3066;SDS011;1544;48.834;9.194;2023-08-31T01:16:51;3.00;;;2.30;;
3066;SDS011;1544;48.834;9.194;2023-08-31T01:19:34;2.90;;;2.23;;
3066;SDS011;1544;48.834;9.194;2023-08-31T01:22:33;2.77;;;2.23;;
3066;SDS011;1544;48.834;9.194;2023-08-31T01:25:38;2.83;;;2.63;;
3066;SDS011;1544;48.834;9.194;2023-08-31T01:28:17;2.23;;;2.03;;
3066;SDS011;1544;48.834;9.194;2023-08-31T01:30:54;2.40;;;1.90;;
3066;SDS011;1544;48.834;9.194;2023-08-31T01:33:29;2.50;;;2.30;;
3066;SDS011;1544;48.834;9.194;2023-08-31T01:36:08;2.53;;;2.30;;
3066;SDS011;1544;48.834;9.194;2023-08-31T01:38:56;2.40;;;2.20;;
3066;SDS011;1544;48.834;9.194;2023-08-31T01:41:39;4.87;;;2.40;;
3066;SDS011;1544;48.834;9.194;2023-08-31T01:44:19;2.23;;;2.03;;
3066;SDS011;1544;48.834;9.194;2023-08-31T01:47:05;2.47;;;2.00;;
3066;SDS011;1544;48.834;9.194;2023-08-31T01:49:42;2.70;;;2.27;;
3066;SDS011;1544;48.834;9.194;2023-08-31T01:52:19;1.90;;;1.80;;
3066;SDS011;1544;48.834;9.194;2023-08-31T01:54:55;2.30;;;2.10;;
3066;SDS011;1544;48.834;9.194;2023-08-31T01:57:31;2.57;;;2.33;;
3066;SDS011;1544;48.834;9.194;2023-08-31T02:00:15;2.00;;;1.90;;
3066;SDS011;1544;48.834;9.194;2023-08-31T02:02:55;1.93;;;1.63;;
3066;SDS011;1544;48.834;9.194;2023-08-31T02:05:31;2.37;;;2.03;;
3066;SDS011;1544;48.834;9.194;2023-08-31T02:08:07;3.73;;;2.13;;
3066;SDS011;1544;48.834;9.194;2023-08-31T02:10:45;2.40;;;2.30;;
3066;SDS011;1544;48.834;9.194;2023-08-31T02:13:30;1.80;;;1.70;;
3066;SDS011;1544;48.834;9.194;2023-08-31T02:16:06;2.70;;;1.77;;
3066;SDS011;1544;48.834;9.194;2023-08-31T02:18:43;1.93;;;1.83;;
3066;SDS011;1544;48.834;9.194;2023-08-31T02:21:20;1.93;;;1.83;;
3066;SDS011;1544;48.834;9.194;2023-08-31T02:23:56;2.13;;;1.90;;
3066;SDS011;1544;48.834;9.194;2023-08-31T02:26:33;1.80;;;1.57;;
3066;SDS011;1544;48.834;9.194;2023-08-31T02:29:12;2.47;;;2.33;;
3066;SDS011;1544;48.834;9.194;2023-08-31T02:31:48;2.10;;;1.90;;
3066;SDS011;1544;48.834;9.194;2023-08-31T02:34:24;3.13;;;1.70;;
3066;SDS011;1544;48.834;9.194;2023-08-31T02:37:00;1.77;;;1.67;;
3066;SDS011;1544;48.834;9.194;2023-08-31T02:39:36;1.70;;;1.60;;
3066;SDS011;1544;48.834;9.194;2023-08-31T02:42:13;1.73;;;1.63;;
3066;SDS011;1544;48.834;9.194;2023-08-31T02:44:53;1.70;;;1.60;;
3066;SDS011;1544;48.834;9.194;2023-08-31T02:47:29;1.60;;;1.50;;
3066;SDS011;1544;48.834;9.194;2023-08-31T02:50:05;1.57;;;1.47;;
3066;SDS011;1544;48.834;9.194;2023-08-31T02:52:42;2.10;;;1.60;;
3066;SDS011;1544;48.834;9.194;2023-08-31T02:55:18;2.50;;;1.77;;
3066;SDS011;1544;48.834;9.194;2023-08-31T02:57:54;2.27;;;1.60;;
3066;SDS011;1544;48.834;9.194;2023-08-31T03:00:30;2.20;;;1.93;;
3066;SDS011;1544;48.834;9.194;2023-08-31T03:03:08;2.13;;;1.33;;
3066;SDS011;1544;48.834;9.194;2023-08-31T03:05:46;1.70;;;1.43;;
3066;SDS011;1544;48.834;9.194;2023-08-31T03:08:22;2.13;;;2.03;;
3066;SDS011;1544;48.834;9.194;2023-08-31T03:10:58;2.83;;;2.03;;
3066;SDS011;1544;48.834;9.194;2023-08-31T03:13:34;1.73;;;1.63;;
3066;SDS011;1544;48.834;9.194;2023-08-31T03:16:11;1.60;;;1.50;;
3066;SDS011;1544;48.834;9.194;2023-08-31T03:18:47;1.57;;;1.47;;
3066;SDS011;1544;48.834;9.194;2023-08-31T03:21:23;3.03;;;1.97;;
3066;SDS011;1544;48.834;9.194;2023-08-31T03:23:59;2.20;;;2.03;;
3066;SDS011;1544;48.834;9.194;2023-08-31T03:26:35;2.40;;;2.00;;
3066;SDS011;1544;48.834;9.194;2023-08-31T03:29:11;2.70;;;1.87;;
3066;SDS011;1544;48.834;9.194;2023-08-31T03:31:47;2.17;;;1.90;;
3066;SDS011;1544;48.834;9.194;2023-08-31T03:34:28;2.23;;;1.93;;
3066;SDS011;1544;48.834;9.194;2023-08-31T03:37:06;6.93;;;3.27;;
3066;SDS011;1544;48.834;9.194;2023-08-31T03:39:43;1.80;;;1.70;;
3066;SDS011;1544;48.834;9.194;2023-08-31T03:42:19;2.70;;;2.33;;
3066;SDS011;1544;48.834;9.194;2023-08-31T03:44:55;1.97;;;1.87;;
3066;SDS011;1544;48.834;9.194;2023-08-31T03:47:32;1.80;;;1.70;;
3066;SDS011;1544;48.834;9.194;2023-08-31T03:50:08;1.90;;;1.80;;
3066;SDS011;1544;48.834;9.194;2023-08-31T03:52:44;2.23;;;2.10;;
3066;SDS011;1544;48.834;9.194;2023-08-31T03:55:20;2.30;;;2.10;;
3066;SDS011;1544;48.834;9.194;2023-08-31T03:57:57;1.90;;;1.80;;
3066;SDS011;1544;48.834;9.194;2023-08-31T04:00:36;2.03;;;1.90;;
3066;SDS011;1544;48.834;9.194;2023-08-31T04:03:12;2.27;;;2.17;;
3066;SDS011;1544;48.834;9.194;2023-08-31T04:05:53;2.77;;;1.83;;
3066;SDS011;1544;48.834;9.194;2023-08-31T04:08:32;2.13;;;2.03;;
3066;SDS011;1544;48.834;9.194;2023-08-31T04:11:11;2.10;;;2.00;;
3066;SDS011;1544;48.834;9.194;2023-08-31T04:13:47;3.20;;;2.10;;
3066;SDS011;1544;48.834;9.194;2023-08-31T04:16:23;2.50;;;2.30;;
3066;SDS011;1544;48.834;9.194;2023-08-31T04:19:00;3.33;;;2.57;;
3066;SDS011;1544;48.834;9.194;2023-08-31T04:21:36;2.40;;;2.20;;
3066;SDS011;1544;48.834;9.194;2023-08-31T04:24:13;3.00;;;2.37;;
3066;SDS011;1544;48.834;9.194;2023-08-31T04:26:49;2.13;;;1.97;;
3066;SDS011;1544;48.834;9.194;2023-08-31T04:29:27;2.43;;;1.93;;
3066;SDS011;1544;48.834;9.194;2023-08-31T04:32:03;2.40;;;2.07;;
3066;SDS011;1544;48.834;9.194;2023-08-31T04:34:40;2.50;;;2.17;;
3066;SDS011;1544;48.834;9.194;2023-08-31T04:37:16;2.53;;;2.23;;
3066;SDS011;1544;48.834;9.194;2023-08-31T04:39:52;2.90;;;1.93;;
3066;SDS011;1544;48.834;9.194;2023-08-31T04:42:28;2.70;;;2.50;;
3066;SDS011;1544;48.834;9.194;2023-08-31T04:45:04;2.00;;;1.90;;
3066;SDS011;1544;48.834;9.194;2023-08-31T04:47:41;3.40;;;1.90;;
3066;SDS011;1544;48.834;9.194;2023-08-31T04:50:18;2.57;;;2.20;;
3066;SDS011;1544;48.834;9.194;2023-08-31T04:52:54;2.50;;;2.00;;
3066;SDS011;1544;48.834;9.194;2023-08-31T04:55:30;2.40;;;2.20;;
3066;SDS011;1544;48.834;9.194;2023-08-31T04:58:06;3.40;;;2.00;;
3066;SDS011;1544;48.834;9.194;2023-08-31T05:00:42;2.80;;;2.63;;
3066;SDS011;1544;48.834;9.194;2023-08-31T05:03:22;2.80;;;2.00;;
3066;SDS011;1544;48.834;9.194;2023-08-31T05:05:58;2.50;;;2.27;;
3066;SDS011;1544;48.834;9.194;2023-08-31T05:08:34;7.80;;;2.60;;
3066;SDS011;1544;48.834;9.194;2023-08-31T05:11:11;3.73;;;2.50;;
3066;SDS011;1544;48.834;9.194;2023-08-31T05:13:47;2.60;;;2.40;;
3066;SDS011;1544;48.834;9.194;2023-08-31T05:16:23;3.40;;;2.07;;
3066;SDS011;1544;48.834;9.194;2023-08-31T05:18:59;2.43;;;2.23;;
3066;SDS011;1544;48.834;9.194;2023-08-31T05:21:35;2.20;;;1.97;;
3066;SDS011;1544;48.834;9.194;2023-08-31T05:24:11;2.70;;;2.00;;
3066;SDS011;1544;48.834;9.194;2023-08-31T05:26:51;3.63;;;2.50;;
3066;SDS011;1544;48.834;9.194;2023-08-31T05:29:27;2.30;;;2.10;;
3066;SDS011;1544;48.834;9.194;2023-08-31T05:32:05;5.60;;;2.20;;
3066;SDS011;1544;48.834;9.194;2023-08-31T05:34:41;2.30;;;2.10;;
3066;SDS011;1544;48.834;9.194;2023-08-31T05:37:17;2.60;;;1.83;;
3066;SDS011;1544;48.834;9.194;2023-08-31T05:39:53;2.87;;;2.03;;
3066;SDS011;1544;48.834;9.194;2023-08-31T05:42:29;2.70;;;2.03;;
3066;SDS011;1544;48.834;9.194;2023-08-31T05:45:06;2.83;;;1.90;;
3066;SDS011;1544;48.834;9.194;2023-08-31T05:47:42;1.70;;;1.60;;
3066;SDS011;1544;48.834;9.194;2023-08-31T05:50:18;2.13;;;1.93;;
3066;SDS011;1544;48.834;9.194;2023-08-31T05:52:55;2.07;;;1.97;;
3066;SDS011;1544;48.834;9.194;2023-08-31T05:55:31;2.50;;;1.93;;
3066;SDS011;1544;48.834;9.194;2023-08-31T05:58:08;3.40;;;1.93;;
3066;SDS011;1544;48.834;9.194;2023-08-31T06:00:44;3.30;;;2.10;;
3066;SDS011;1544;48.834;9.194;2023-08-31T06:03:20;2.50;;;2.23;;
3066;SDS011;1544;48.834;9.194;2023-08-31T06:05:57;2.10;;;2.00;;
3066;SDS011;1544;48.834;9.194;2023-08-31T06:08:34;2.90;;;2.40;;
3066;SDS011;1544;48.834;9.194;2023-08-31T06:11:10;2.70;;;1.93;;
3066;SDS011;1544;48.834;9.194;2023-08-31T06:13:48;2.27;;;2.17;;
3066;SDS011;1544;48.834;9.194;2023-08-31T06:16:24;3.77;;;2.20;;
3066;SDS011;1544;48.834;9.194;2023-08-31T06:19:00;3.40;;;1.90;;
3066;SDS011;1544;48.834;9.194;2023-08-31T06:21:36;2.30;;;2.10;;
3066;SDS011;1544;48.834;9.194;2023-08-31T06:24:12;3.77;;;2.50;;
3066;SDS011;1544;48.834;9.194;2023-08-31T06:26:48;2.90;;;2.00;;
3066;SDS011;1544;48.834;9.194;2023-08-31T06:29:25;3.03;;;2.30;;
3066;SDS011;1544;48.834;9.194;2023-08-31T06:32:03;2.10;;;1.70;;
3066;SDS011;1544;48.834;9.194;2023-08-31T06:34:40;3.60;;;2.20;;
3066;SDS011;1544;48.834;9.194;2023-08-31T06:37:16;2.60;;;1.87;;
3066;SDS011;1544;48.834;9.194;2023-08-31T06:39:52;3.50;;;1.90;;
3066;SDS011;1544;48.834;9.194;2023-08-31T06:42:28;2.90;;;1.70;;
3066;SDS011;1544;48.834;9.194;2023-08-31T06:45:05;3.57;;;1.60;;
3066;SDS011;1544;48.834;9.194;2023-08-31T06:47:43;1.80;;;1.40;;
3066;SDS011;1544;48.834;9.194;2023-08-31T06:50:19;3.20;;;1.50;;
3066;SDS011;1544;48.834;9.194;2023-08-31T06:52:55;3.73;;;1.30;;
3066;SDS011;1544;48.834;9.194;2023-08-31T06:55:31;4.50;;;1.53;;
3066;SDS011;1544;48.834;9.194;2023-08-31T06:58:09;3.30;;;1.70;;
3066;SDS011;1544;48.834;9.194;2023-08-31T07:00:45;1.60;;;1.43;;
3066;SDS011;1544;48.834;9.194;2023-08-31T07:03:22;2.47;;;1.40;;
3066;SDS011;1544;48.834;9.194;2023-08-31T07:06:01;2.57;;;1.60;;
3066;SDS011;1544;48.834;9.194;2023-08-31T07:08:38;3.43;;;1.50;;
3066;SDS011;1544;48.834;9.194;2023-08-31T07:11:16;2.17;;;1.50;;
3066;SDS011;1544;48.834;9.194;2023-08-31T07:13:54;1.87;;;1.50;;
3066;SDS011;1544;48.834;9.194;2023-08-31T07:16:30;1.30;;;1.20;;
3066;SDS011;1544;48.834;9.194;2023-08-31T07:19:06;1.70;;;1.60;;
3066;SDS011;1544;48.834;9.194;2023-08-31T07:21:42;4.30;;;1.77;;
3066;SDS011;1544;48.834;9.194;2023-08-31T07:24:18;2.30;;;1.57;;
3066;SDS011;1544;48.834;9.194;2023-08-31T07:26:54;2.50;;;1.50;;
3066;SDS011;1544;48.834;9.194;2023-08-31T07:29:30;1.60;;;1.33;;
3066;SDS011;1544;48.834;9.194;2023-08-31T07:32:06;1.70;;;1.47;;
3066;SDS011;1544;48.834;9.194;2023-08-31T07:34:42;3.10;;;1.30;;
3066;SDS011;1544;48.834;9.194;2023-08-31T07:37:19;2.90;;;1.50;;
3066;SDS011;1544;48.834;9.194;2023-08-31T07:39:55;3.70;;;1.80;;
3066;SDS011;1544;48.834;9.194;2023-08-31T07:42:31;2.03;;;1.53;;
3066;SDS011;1544;48.834;9.194;2023-08-31T07:45:07;4.33;;;1.30;;
3066;SDS011;1544;48.834;9.194;2023-08-31T07:47:44;2.97;;;1.43;;
3066;SDS011;1544;48.834;9.194;2023-08-31T07:50:20;2.47;;;1.50;;
3066;SDS011;1544;48.834;9.194;2023-08-31T07:52:56;3.70;;;1.30;;
3066;SDS011;1544;48.834;9.194;2023-08-31T07:55:32;4.80;;;1.57;;
3066;SDS011;1544;48.834;9.194;2023-08-31T07:58:08;1.67;;;1.57;;
3066;SDS011;1544;48.834;9.194;2023-08-31T08:00:44;6.20;;;1.67;;
3066;SDS011;1544;48.834;9.194;2023-08-31T08:03:21;2.80;;;1.37;;
3066;SDS011;1544;48.834;9.194;2023-08-31T08:05:59;2.87;;;1.20;;
3066;SDS011;1544;48.834;9.194;2023-08-31T08:08:35;1.67;;;1.40;;
3066;SDS011;1544;48.834;9.194;2023-08-31T08:11:14;2.20;;;1.23;;
3066;SDS011;1544;48.834;9.194;2023-08-31T08:13:50;1.63;;;1.20;;
3066;SDS011;1544;48.834;9.194;2023-08-31T08:16:26;1.60;;;1.10;;
3066;SDS011;1544;48.834;9.194;2023-08-31T08:19:03;2.33;;;1.40;;
3066;SDS011;1544;48.834;9.194;2023-08-31T08:21:41;1.73;;;1.27;;
3066;SDS011;1544;48.834;9.194;2023-08-31T08:24:17;2.07;;;1.37;;
3066;SDS011;1544;48.834;9.194;2023-08-31T08:26:53;2.50;;;1.30;;
3066;SDS011;1544;48.834;9.194;2023-08-31T08:29:29;2.33;;;1.60;;
3066;SDS011;1544;48.834;9.194;2023-08-31T08:32:05;1.27;;;1.07;;
3066;SDS011;1544;48.834;9.194;2023-08-31T08:34:41;3.20;;;1.20;;
3066;SDS011;1544;48.834;9.194;2023-08-31T08:37:17;1.60;;;1.27;;
3066;SDS011;1544;48.834;9.194;2023-08-31T08:39:54;2.40;;;1.20;;
3066;SDS011;1544;48.834;9.194;2023-08-31T08:42:30;2.03;;;1.30;;
3066;SDS011;1544;48.834;9.194;2023-08-31T08:45:09;2.33;;;1.10;;
3066;SDS011;1544;48.834;9.194;2023-08-31T08:47:52;1.30;;;1.20;;
3066;SDS011;1544;48.834;9.194;2023-08-31T08:50:29;1.77;;;1.20;;
3066;SDS011;1544;48.834;9.194;2023-08-31T08:53:09;2.47;;;1.30;;
3066;SDS011;1544;48.834;9.194;2023-08-31T08:55:47;1.30;;;1.20;;
3066;SDS011;1544;48.834;9.194;2023-08-31T08:58:23;1.40;;;1.30;;
3066;SDS011;1544;48.834;9.194;2023-08-31T09:00:59;2.30;;;1.10;;
3066;SDS011;1544;48.834;9.194;2023-08-31T09:03:35;1.33;;;1.23;;
3066;SDS011;1544;48.834;9.194;2023-08-31T09:06:11;2.27;;;1.00;;
3066;SDS011;1544;48.834;9.194;2023-08-31T09:08:53;1.93;;;1.30;;
3066;SDS011;1544;48.834;9.194;2023-08-31T09:11:31;2.07;;;1.37;;
3066;SDS011;1544;48.834;9.194;2023-08-31T09:14:14;2.10;;;1.23;;
3066;SDS011;1544;48.834;9.194;2023-08-31T09:16:54;2.87;;;1.50;;
3066;SDS011;1544;48.834;9.194;2023-08-31T09:19:31;2.90;;;1.53;;
3066;SDS011;1544;48.834;9.194;2023-08-31T09:22:10;2.67;;;1.83;;
3066;SDS011;1544;48.834;9.194;2023-08-31T09:24:47;3.00;;;1.27;;
3066;SDS011;1544;48.834;9.194;2023-08-31T09:27:23;1.40;;;1.30;;
3066;SDS011;1544;48.834;9.194;2023-08-31T09:30:00;2.40;;;1.57;;
3066;SDS011;1544;48.834;9.194;2023-08-31T09:32:36;4.47;;;1.23;;
3066;SDS011;1544;48.834;9.194;2023-08-31T09:35:13;2.30;;;1.20;;
3066;SDS011;1544;48.834;9.194;2023-08-31T09:37:56;1.30;;;1.20;;
3066;SDS011;1544;48.834;9.194;2023-08-31T09:40:32;1.97;;;1.20;;
3066;SDS011;1544;48.834;9.194;2023-08-31T09:43:08;1.93;;;1.20;;
3066;SDS011;1544;48.834;9.194;2023-08-31T09:45:45;2.33;;;1.50;;
3066;SDS011;1544;48.834;9.194;2023-08-31T09:48:22;1.83;;;1.10;;
3066;SDS011;1544;48.834;9.194;2023-08-31T09:51:02;1.37;;;1.10;;
3066;SDS011;1544;48.834;9.194;2023-08-31T09:53:40;1.80;;;1.30;;
3066;SDS011;1544;48.834;9.194;2023-08-31T09:56:18;1.10;;;1.00;;
3066;SDS011;1544;48.834;9.194;2023-08-31T09:58:57;1.67;;;1.20;;
3066;SDS011;1544;48.834;9.194;2023-08-31T10:01:33;2.77;;;1.20;;
3066;SDS011;1544;48.834;9.194;2023-08-31T10:04:10;1.93;;;1.50;;
3066;SDS011;1544;48.834;9.194;2023-08-31T10:06:48;2.77;;;1.60;;
3066;SDS011;1544;48.834;9.194;2023-08-31T10:09:25;1.10;;;1.00;;
3066;SDS011;1544;48.834;9.194;2023-08-31T10:12:05;1.50;;;1.03;;
3066;SDS011;1544;48.834;9.194;2023-08-31T10:14:43;1.63;;;1.00;;
3066;SDS011;1544;48.834;9.194;2023-08-31T10:17:21;7.60;;;1.10;;
3066;SDS011;1544;48.834;9.194;2023-08-31T10:20:00;1.50;;;1.40;;
3066;SDS011;1544;48.834;9.194;2023-08-31T10:22:36;1.17;;;0.87;;
3066;SDS011;1544;48.834;9.194;2023-08-31T10:25:13;1.67;;;1.10;;
3066;SDS011;1544;48.834;9.194;2023-08-31T10:27:49;1.57;;;1.10;;
3066;SDS011;1544;48.834;9.194;2023-08-31T10:30:28;3.13;;;1.37;;
3066;SDS011;1544;48.834;9.194;2023-08-31T10:35:54;2.43;;;1.17;;
3066;SDS011;1544;48.834;9.194;2023-08-31T10:38:32;3.43;;;1.50;;
3066;SDS011;1544;48.834;9.194;2023-08-31T10:43:48;1.50;;;1.40;;
3066;SDS011;1544;48.834;9.194;2023-08-31T10:46:30;1.70;;;1.40;;
3066;SDS011;1544;48.834;9.194;2023-08-31T10:51:55;3.87;;;1.20;;
3066;SDS011;1544;48.834;9.194;2023-08-31T10:54:33;1.73;;;1.20;;
3066;SDS011;1544;48.834;9.194;2023-08-31T10:57:10;2.07;;;1.27;;
3066;SDS011;1544;48.834;9.194;2023-08-31T10:59:52;1.83;;;1.27;;
3066;SDS011;1544;48.834;9.194;2023-08-31T11:02:38;3.03;;;1.20;;
3066;SDS011;1544;48.834;9.194;2023-08-31T11:05:18;2.00;;;1.10;;
3066;SDS011;1544;48.834;9.194;2023-08-31T11:07:58;2.43;;;1.30;;
3066;SDS011;1544;48.834;9.194;2023-08-31T11:10:35;2.67;;;1.87;;
3066;SDS011;1544;48.834;9.194;2023-08-31T11:13:15;1.30;;;1.20;;
3066;SDS011;1544;48.834;9.194;2023-08-31T11:15:55;4.13;;;1.60;;
3066;SDS011;1544;48.834;9.194;2023-08-31T11:18:32;2.90;;;1.40;;
3066;SDS011;1544;48.834;9.194;2023-08-31T11:21:08;2.53;;;1.30;;
3066;SDS011;1544;48.834;9.194;2023-08-31T11:23:44;3.17;;;1.20;;
3066;SDS011;1544;48.834;9.194;2023-08-31T11:26:20;2.80;;;1.40;;
3066;SDS011;1544;48.834;9.194;2023-08-31T11:28:56;4.47;;;1.60;;
3066;SDS011;1544;48.834;9.194;2023-08-31T11:31:37;1.30;;;1.20;;
3066;SDS011;1544;48.834;9.194;2023-08-31T11:34:16;2.17;;;1.20;;
3066;SDS011;1544;48.834;9.194;2023-08-31T11:36:54;2.97;;;1.63;;
3066;SDS011;1544;48.834;9.194;2023-08-31T11:39:30;2.90;;;1.50;;
3066;SDS011;1544;48.834;9.194;2023-08-31T11:42:08;4.57;;;1.80;;
3066;SDS011;1544;48.834;9.194;2023-08-31T11:44:45;1.70;;;1.30;;
3066;SDS011;1544;48.834;9.194;2023-08-31T11:47:31;2.97;;;1.10;;
3066;SDS011;1544;48.834;9.194;2023-08-31T11:50:07;3.60;;;1.33;;
3066;SDS011;1544;48.834;9.194;2023-08-31T11:52:44;2.73;;;1.50;;
3066;SDS011;1544;48.834;9.194;2023-08-31T11:55:20;3.67;;;1.20;;
3066;SDS011;1544;48.834;9.194;2023-08-31T11:57:58;1.30;;;1.10;;
3066;SDS011;1544;48.834;9.194;2023-08-31T12:00:34;2.50;;;1.30;;
3066;SDS011;1544;48.834;9.194;2023-08-31T12:03:10;1.50;;;1.27;;
3066;SDS011;1544;48.834;9.194;2023-08-31T12:05:47;2.50;;;1.30;;
3066;SDS011;1544;48.834;9.194;2023-08-31T12:08:27;1.77;;;1.30;;
3066;SDS011;1544;48.834;9.194;2023-08-31T12:11:06;2.23;;;1.40;;
3066;SDS011;1544;48.834;9.194;2023-08-31T12:13:43;1.60;;;1.30;;
3066;SDS011;1544;48.834;9.194;2023-08-31T12:16:20;2.50;;;1.30;;
3066;SDS011;1544;48.834;9.194;2023-08-31T12:18:58;3.00;;;1.60;;
3066;SDS011;1544;48.834;9.194;2023-08-31T12:21:35;3.60;;;1.77;;
3066;SDS011;1544;48.834;9.194;2023-08-31T12:24:15;2.90;;;1.90;;
3066;SDS011;1544;48.834;9.194;2023-08-31T12:26:52;1.63;;;1.20;;
3066;SDS011;1544;48.834;9.194;2023-08-31T12:29:32;2.87;;;1.30;;
3066;SDS011;1544;48.834;9.194;2023-08-31T12:32:09;2.90;;;1.30;;
3066;SDS011;1544;48.834;9.194;2023-08-31T12:34:45;2.73;;;1.50;;
3066;SDS011;1544;48.834;9.194;2023-08-31T12:37:21;1.70;;;1.23;;
3066;SDS011;1544;48.834;9.194;2023-08-31T12:39:57;2.97;;;1.30;;
3066;SDS011;1544;48.834;9.194;2023-08-31T12:42:34;1.30;;;1.20;;
3066;SDS011;1544;48.834;9.194;2023-08-31T12:45:10;1.87;;;1.43;;
3066;SDS011;1544;48.834;9.194;2023-08-31T12:47:46;2.70;;;1.27;;
3066;SDS011;1544;48.834;9.194;2023-08-31T12:50:23;2.07;;;1.20;;
3066;SDS011;1544;48.834;9.194;2023-08-31T12:52:59;1.47;;;1.37;;
3066;SDS011;1544;48.834;9.194;2023-08-31T12:55:35;2.63;;;1.60;;
3066;SDS011;1544;48.834;9.194;2023-08-31T12:58:12;2.10;;;1.37;;
3066;SDS011;1544;48.834;9.194;2023-08-31T13:00:48;1.47;;;1.37;;
3066;SDS011;1544;48.834;9.194;2023-08-31T13:03:30;1.90;;;1.20;;
3066;SDS011;1544;48.834;9.194;2023-08-31T13:06:06;2.07;;;1.30;;
3066;SDS011;1544;48.834;9.194;2023-08-31T13:08:42;2.60;;;1.30;;
3066;SDS011;1544;48.834;9.194;2023-08-31T13:11:20;2.90;;;1.40;;
3066;SDS011;1544;48.834;9.194;2023-08-31T13:13:59;1.37;;;1.27;;
3066;SDS011;1544;48.834;9.194;2023-08-31T13:16:35;1.70;;;1.20;;
3066;SDS011;1544;48.834;9.194;2023-08-31T13:19:15;2.00;;;1.10;;
3066;SDS011;1544;48.834;9.194;2023-08-31T13:21:51;4.17;;;1.30;;
3066;SDS011;1544;48.834;9.194;2023-08-31T13:24:27;2.13;;;1.20;;
3066;SDS011;1544;48.834;9.194;2023-08-31T13:27:03;2.03;;;1.30;;
3066;SDS011;1544;48.834;9.194;2023-08-31T13:29:40;2.83;;;1.30;;
3066;SDS011;1544;48.834;9.194;2023-08-31T13:32:16;1.57;;;1.30;;
3066;SDS011;1544;48.834;9.194;2023-08-31T13:34:52;2.23;;;1.40;;
3066;SDS011;1544;48.834;9.194;2023-08-31T13:37:30;2.27;;;1.20;;
3066;SDS011;1544;48.834;9.194;2023-08-31T13:40:07;4.40;;;1.10;;
3066;SDS011;1544;48.834;9.194;2023-08-31T13:42:54;4.30;;;1.30;;
3066;SDS011;1544;48.834;9.194;2023-08-31T13:45:38;1.20;;;1.10;;
3066;SDS011;1544;48.834;9.194;2023-08-31T13:48:14;3.87;;;1.63;;
3066;SDS011;1544;48.834;9.194;2023-08-31T13:50:50;2.13;;;1.10;;
3066;SDS011;1544;48.834;9.194;2023-08-31T13:53:26;2.20;;;1.40;;
3066;SDS011;1544;48.834;9.194;2023-08-31T13:56:02;1.70;;;1.20;;
3066;SDS011;1544;48.834;9.194;2023-08-31T13:58:39;1.30;;;1.20;;
3066;SDS011;1544;48.834;9.194;2023-08-31T14:01:16;1.90;;;1.20;;
3066;SDS011;1544;48.834;9.194;2023-08-31T14:03:52;5.17;;;1.60;;
3066;SDS011;1544;48.834;9.194;2023-08-31T14:06:28;2.07;;;1.20;;
3066;SDS011;1544;48.834;9.194;2023-08-31T14:09:04;1.50;;;1.10;;
3066;SDS011;1544;48.834;9.194;2023-08-31T14:11:40;2.30;;;1.47;;
3066;SDS011;1544;48.834;9.194;2023-08-31T14:14:16;4.00;;;1.33;;
3066;SDS011;1544;48.834;9.194;2023-08-31T14:16:52;1.60;;;1.10;;
3066;SDS011;1544;48.834;9.194;2023-08-31T14:19:28;1.33;;;1.23;;
3066;SDS011;1544;48.834;9.194;2023-08-31T14:22:04;4.93;;;1.30;;
3066;SDS011;1544;48.834;9.194;2023-08-31T14:24:41;3.10;;;1.30;;
3066;SDS011;1544;48.834;9.194;2023-08-31T14:27:19;2.50;;;1.53;;
3066;SDS011;1544;48.834;9.194;2023-08-31T14:29:58;4.00;;;1.77;;
3066;SDS011;1544;48.834;9.194;2023-08-31T14:32:34;3.90;;;1.50;;
3066;SDS011;1544;48.834;9.194;2023-08-31T14:35:10;2.57;;;1.50;;
3066;SDS011;1544;48.834;9.194;2023-08-31T14:37:46;2.90;;;1.17;;
3066;SDS011;1544;48.834;9.194;2023-08-31T14:40:22;1.90;;;1.40;;
3066;SDS011;1544;48.834;9.194;2023-08-31T14:42:58;2.30;;;1.67;;
3066;SDS011;1544;48.834;9.194;2023-08-31T14:45:36;3.20;;;1.50;;
3066;SDS011;1544;48.834;9.194;2023-08-31T14:48:13;1.80;;;1.53;;
3066;SDS011;1544;48.834;9.194;2023-08-31T14:50:50;5.67;;;2.73;;
3066;SDS011;1544;48.834;9.194;2023-08-31T14:53:26;3.23;;;2.00;;
3066;SDS011;1544;48.834;9.194;2023-08-31T14:56:03;2.63;;;2.00;;
3066;SDS011;1544;48.834;9.194;2023-08-31T14:58:39;5.40;;;2.50;;
3066;SDS011;1544;48.834;9.194;2023-08-31T15:01:15;4.40;;;2.40;;
3066;SDS011;1544;48.834;9.194;2023-08-31T15:03:51;2.83;;;1.93;;
3066;SDS011;1544;48.834;9.194;2023-08-31T15:06:27;3.40;;;1.90;;
3066;SDS011;1544;48.834;9.194;2023-08-31T15:09:07;3.23;;;1.30;;
3066;SDS011;1544;48.834;9.194;2023-08-31T15:11:43;2.60;;;1.30;;
3066;SDS011;1544;48.834;9.194;2023-08-31T15:14:21;2.17;;;1.27;;
3066;SDS011;1544;48.834;9.194;2023-08-31T15:16:57;1.53;;;1.30;;
3066;SDS011;1544;48.834;9.194;2023-08-31T15:19:33;2.03;;;1.30;;
3066;SDS011;1544;48.834;9.194;2023-08-31T15:22:10;4.17;;;1.43;;
3066;SDS011;1544;48.834;9.194;2023-08-31T15:24:46;2.50;;;1.50;;
3066;SDS011;1544;48.834;9.194;2023-08-31T15:27:23;2.10;;;1.10;;
3066;SDS011;1544;48.834;9.194;2023-08-31T15:29:59;4.50;;;1.40;;
3066;SDS011;1544;48.834;9.194;2023-08-31T15:32:36;1.50;;;1.20;;
3066;SDS011;1544;48.834;9.194;2023-08-31T15:35:13;2.77;;;1.50;;
3066;SDS011;1544;48.834;9.194;2023-08-31T15:37:51;2.73;;;1.23;;
3066;SDS011;1544;48.834;9.194;2023-08-31T15:40:28;3.50;;;1.40;;
3066;SDS011;1544;48.834;9.194;2023-08-31T15:43:04;1.70;;;1.50;;
3066;SDS011;1544;48.834;9.194;2023-08-31T15:45:43;2.00;;;1.33;;
3066;SDS011;1544;48.834;9.194;2023-08-31T15:48:22;2.57;;;1.23;;
3066;SDS011;1544;48.834;9.194;2023-08-31T15:50:59;1.63;;;1.17;;
3066;SDS011;1544;48.834;9.194;2023-08-31T15:53:36;1.83;;;1.60;;
3066;SDS011;1544;48.834;9.194;2023-08-31T15:56:12;2.00;;;1.30;;
3066;SDS011;1544;48.834;9.194;2023-08-31T15:58:48;2.50;;;1.30;;
3066;SDS011;1544;48.834;9.194;2023-08-31T16:01:24;2.00;;;1.53;;
3066;SDS011;1544;48.834;9.194;2023-08-31T16:04:01;2.20;;;1.43;;
3066;SDS011;1544;48.834;9.194;2023-08-31T16:06:38;3.47;;;1.40;;
3066;SDS011;1544;48.834;9.194;2023-08-31T16:09:14;3.20;;;1.70;;
3066;SDS011;1544;48.834;9.194;2023-08-31T16:11:50;2.80;;;1.70;;
3066;SDS011;1544;48.834;9.194;2023-08-31T16:14:26;2.73;;;1.30;;
3066;SDS011;1544;48.834;9.194;2023-08-31T16:17:02;4.20;;;1.20;;
3066;SDS011;1544;48.834;9.194;2023-08-31T16:19:38;2.03;;;1.43;;
3066;SDS011;1544;48.834;9.194;2023-08-31T16:22:14;1.57;;;1.30;;
3066;SDS011;1544;48.834;9.194;2023-08-31T16:24:50;2.27;;;1.40;;
3066;SDS011;1544;48.834;9.194;2023-08-31T16:27:26;3.83;;;1.70;;
3066;SDS011;1544;48.834;9.194;2023-08-31T16:30:04;2.30;;;1.40;;
3066;SDS011;1544;48.834;9.194;2023-08-31T16:32:45;1.83;;;1.70;;